createdAt,value
2023-04-02T00:00:07.011Z,100.00
2023-04-02T00:05:16.396Z,100.00
2023-04-02T00:10:33.209Z,100.00
2023-04-02T00:20:38.491Z,100.00
2023-04-02T00:25:43.203Z,100.00
2023-04-02T00:30:58.973Z,100.00
2023-04-02T00:36:00.459Z,100.00
2023-04-02T00:41:03.744Z,100.00
2023-04-02T00:51:14.155Z,88.65
2023-04-02T00:56:30.961Z,100.00
2023-04-02T01:01:36.621Z,100.00
2023-04-02T01:06:38.675Z,100.00
2023-04-02T01:11:58.627Z,100.00
2023-04-02T01:22:13.886Z,100.00
2023-04-02T01:27:21.475Z,100.00
2023-04-02T01:32:24.134Z,100.00
2023-04-02T01:42:44.408Z,100.00
2023-04-02T01:47:46.238Z,100.00
2023-04-02T01:52:53.679Z,100.00
2023-04-02T01:57:55.570Z,100.00
2023-04-02T02:02:57.224Z,88.65
2023-04-02T02:13:03.908Z,0.00
2023-04-02T02:18:05.822Z,100.00
2023-04-02T02:23:07.642Z,100.00
2023-04-02T02:28:23.734Z,100.00
2023-04-02T02:38:29.958Z,100.00
2023-04-02T02:48:39.039Z,88.65
2023-04-02T02:53:50.510Z,100.00
2023-04-02T02:58:53.245Z,100.00
2023-04-02T03:03:59.731Z,100.00
2023-04-02T03:09:17.327Z,100.00
2023-04-02T03:14:24.034Z,100.00
2023-04-02T03:24:59.533Z,100.00
2023-04-02T03:30:05.128Z,88.65
2023-04-02T03:35:27.701Z,100.00
2023-04-02T03:40:34.958Z,100.00
2023-04-02T03:45:39.728Z,100.00
2023-04-02T03:50:45.942Z,100.00
2023-04-02T03:55:47.922Z,100.00
2023-04-02T04:00:56.783Z,88.65
2023-04-02T04:06:00.707Z,100.00
2023-04-02T04:11:07.413Z,100.00
2023-04-02T04:16:17.614Z,100.00
2023-04-02T04:26:53.432Z,88.65
2023-04-02T04:31:56.180Z,100.00
2023-04-02T04:47:18.615Z,100.00
2023-04-02T04:52:24.243Z,100.00
2023-04-02T04:57:36.589Z,100.00
2023-04-02T05:02:52.705Z,100.00
2023-04-02T05:13:04.649Z,100.00
2023-04-02T05:18:14.871Z,100.00
2023-04-02T05:23:29.512Z,100.00
2023-04-02T05:28:42.473Z,100.00
2023-04-02T05:33:47.925Z,100.00
2023-04-02T05:38:51.291Z,100.00
2023-04-02T05:44:17.178Z,100.00
2023-04-02T05:49:25.374Z,100.00
2023-04-02T05:54:30.023Z,100.00
2023-04-02T05:59:41.851Z,100.00
2023-04-02T06:14:52.558Z,100.00
2023-04-02T06:19:57.192Z,100.00
2023-04-02T06:25:02.545Z,100.00
2023-04-02T06:30:15.600Z,100.00
2023-04-02T06:35:17.927Z,100.00
2023-04-02T06:40:30.389Z,100.00
2023-04-02T06:45:34.944Z,100.00
2023-04-02T06:51:07.215Z,100.00
2023-04-02T06:56:27.691Z,100.00
2023-04-02T07:01:30.725Z,100.00
2023-04-02T07:06:33.024Z,100.00
2023-04-02T07:11:36.274Z,100.00
2023-04-02T07:16:40.967Z,88.65
2023-04-02T07:21:42.461Z,100.00
2023-04-02T07:31:45.586Z,100.00
2023-04-02T07:36:47.049Z,100.00
2023-04-02T07:41:55.761Z,100.00
2023-04-02T07:46:57.249Z,100.00
2023-04-02T07:51:58.867Z,0.00
2023-04-02T07:57:00.269Z,100.00
2023-04-02T08:02:02.706Z,100.00
2023-04-02T08:07:04.097Z,100.00
2023-04-02T08:12:05.711Z,100.00
2023-04-02T08:17:07.153Z,100.00
2023-04-02T08:22:08.463Z,100.00
2023-04-02T08:27:13.628Z,100.00
2023-04-02T08:32:16.214Z,100.00
2023-04-02T08:37:17.554Z,100.00
2023-04-02T08:42:23.208Z,100.00
2023-04-02T08:47:27.029Z,100.00
2023-04-02T08:52:30.423Z,100.00
2023-04-02T08:57:31.880Z,100.00
2023-04-02T09:02:46.779Z,100.00
2023-04-02T09:07:50.629Z,100.00
2023-04-02T09:12:52.799Z,100.00
2023-04-02T09:17:59.963Z,100.00
2023-04-02T09:28:04.319Z,100.00
2023-04-02T09:33:09.457Z,100.00
2023-04-02T09:38:31.616Z,100.00
2023-04-02T09:43:36.855Z,100.00
2023-04-02T09:53:45.993Z,100.00
2023-04-02T09:59:02.901Z,100.00
2023-04-02T10:04:05.297Z,100.00
2023-04-02T10:09:21.468Z,100.00
2023-04-02T10:14:30.432Z,100.00
2023-04-02T10:19:37.575Z,100.00
2023-04-02T10:24:39.637Z,100.00
2023-04-02T10:29:53.708Z,100.00
2023-04-02T10:34:58.149Z,86.87
2023-04-02T10:40:19.735Z,85.68
2023-04-02T10:45:32.398Z,87.02
2023-04-02T10:50:40.277Z,87.02
2023-04-02T10:55:48.129Z,84.87
2023-04-02T11:00:49.980Z,87.46
2023-04-02T11:05:52.156Z,87.46
2023-04-02T11:10:59.027Z,87.46
2023-04-02T11:16:00.525Z,85.05
2023-04-02T11:21:03.642Z,87.09
2023-04-02T11:26:23.652Z,83.25
2023-04-02T11:31:25.055Z,83.25
2023-04-02T11:36:45.078Z,82.69
2023-04-02T11:42:03.164Z,82.68
2023-04-02T11:47:16.542Z,84.69
2023-04-02T11:52:20.902Z,83.10
2023-04-02T11:57:25.004Z,82.58
2023-04-02T12:02:35.252Z,81.33
2023-04-02T12:07:46.568Z,80.76
2023-04-02T12:12:48.485Z,81.80
2023-04-02T12:17:50.209Z,82.66
2023-04-02T12:22:55.791Z,81.25
2023-04-02T12:28:09.635Z,80.11
2023-04-02T12:33:19.830Z,81.57
2023-04-02T12:38:25.867Z,80.90
2023-04-02T12:43:31.346Z,81.04
2023-04-02T12:48:33.524Z,78.70
2023-04-02T12:53:40.024Z,78.06
2023-04-02T12:58:42.681Z,78.08
2023-04-02T13:03:44.827Z,77.28
2023-04-02T13:08:46.217Z,78.15
2023-04-02T13:13:48.587Z,76.09
2023-04-02T13:18:50.589Z,77.47
2023-04-02T13:23:51.957Z,77.28
2023-04-02T13:28:56.499Z,77.83
2023-04-02T13:33:58.530Z,75.91
2023-04-02T13:39:00.174Z,75.63
2023-04-02T13:44:02.801Z,73.41
2023-04-02T13:49:04.247Z,74.40
2023-04-02T13:54:08.833Z,72.58
2023-04-02T13:59:10.325Z,74.65
2023-04-02T14:04:13.839Z,73.65
2023-04-02T14:09:18.132Z,73.01
2023-04-02T14:14:28.655Z,74.13
2023-04-02T14:19:50.891Z,73.44
2023-04-02T14:24:52.247Z,74.40
2023-04-02T14:30:13.976Z,74.17
2023-04-02T14:35:24.511Z,72.39
2023-04-02T14:40:46.323Z,73.62
2023-04-02T14:45:51.481Z,73.31
2023-04-02T14:51:01.436Z,71.97
2023-04-02T14:56:05.730Z,72.89
2023-04-02T15:01:13.675Z,71.33
2023-04-02T15:06:18.314Z,68.93
2023-04-02T15:11:21.408Z,69.19
2023-04-02T15:16:25.467Z,66.91
2023-04-02T15:21:29.932Z,68.91
2023-04-02T15:26:37.794Z,65.65
2023-04-02T15:31:43.803Z,65.27
2023-04-02T15:36:54.122Z,64.35
2023-04-02T15:41:58.397Z,67.27
2023-04-02T15:47:05.720Z,63.09
2023-04-02T15:52:17.031Z,64.33
2023-04-02T15:57:27.545Z,64.97
2023-04-02T16:02:41.055Z,64.02
2023-04-02T16:07:42.484Z,62.47
2023-04-02T16:12:44.180Z,61.06
2023-04-02T16:17:47.580Z,62.58
2023-04-02T16:23:00.596Z,62.19
2023-04-02T16:28:02.517Z,61.89
2023-04-02T16:33:30.354Z,63.05
2023-04-02T16:38:40.852Z,62.21
2023-04-02T16:43:48.884Z,61.47
2023-04-02T16:49:08.845Z,59.12
2023-04-02T16:54:16.981Z,63.02
2023-04-02T16:59:22.857Z,62.23
2023-04-02T17:04:24.202Z,65.41
2023-04-02T17:09:49.314Z,62.66
2023-04-02T17:14:54.572Z,64.58
2023-04-02T17:19:57.835Z,64.24
2023-04-02T17:25:04.184Z,64.99
2023-04-02T17:30:17.075Z,64.55
2023-04-02T17:35:24.985Z,60.12
2023-04-02T17:40:52.961Z,63.23
2023-04-02T17:46:01.734Z,63.06
2023-04-02T17:51:21.823Z,61.23
2023-04-02T17:56:29.024Z,65.26
2023-04-02T18:01:39.640Z,64.96
2023-04-02T18:06:45.996Z,64.47
2023-04-02T18:12:02.071Z,64.98
2023-04-02T18:17:42.106Z,65.83
2023-04-02T18:22:49.362Z,66.94
2023-04-02T18:27:56.903Z,64.63
2023-04-02T18:33:18.366Z,66.15
2023-04-02T18:38:33.152Z,67.27
2023-04-02T18:43:53.095Z,65.49
2023-04-02T18:48:59.766Z,68.09
2023-04-02T18:54:17.645Z,65.01
2023-04-02T18:59:28.251Z,67.61
2023-04-02T19:04:31.538Z,65.71
2023-04-02T19:09:38.716Z,67.05
2023-04-02T19:14:40.292Z,66.75
2023-04-02T19:19:46.587Z,66.30
2023-04-02T19:24:57.314Z,65.48
2023-04-02T19:29:58.650Z,65.37
2023-04-02T19:35:07.256Z,66.09
2023-04-02T19:40:27.383Z,65.40
2023-04-02T19:45:34.710Z,65.32
2023-04-02T19:50:36.473Z,65.37
2023-04-02T19:55:38.237Z,65.54
2023-04-02T20:00:39.906Z,66.41
2023-04-02T20:05:41.274Z,66.60
2023-04-02T20:10:42.678Z,67.27
2023-04-02T20:15:44.016Z,66.69
2023-04-02T20:20:46.469Z,67.45
2023-04-02T20:25:52.606Z,68.73
2023-04-02T20:30:54.702Z,67.98
2023-04-02T20:36:00.757Z,69.18
2023-04-02T20:41:03.666Z,70.70
2023-04-02T20:46:05.653Z,69.65
2023-04-02T20:51:08.089Z,70.41
2023-04-02T20:56:13.618Z,70.82
2023-04-02T21:01:22.147Z,70.74
2023-04-02T21:06:24.568Z,71.99
2023-04-02T21:11:26.136Z,72.72
2023-04-02T21:16:29.251Z,73.01
2023-04-02T21:21:30.768Z,73.06
2023-04-02T21:26:34.829Z,73.90
2023-04-02T21:31:37.602Z,72.66
2023-04-02T21:36:46.120Z,72.96
2023-04-02T21:41:50.064Z,72.70
2023-04-02T21:46:53.627Z,72.72
2023-04-02T21:51:55.704Z,73.04
2023-04-02T21:56:57.114Z,72.73
2023-04-02T22:01:58.562Z,72.73
2023-04-02T22:06:59.952Z,72.73
2023-04-02T22:12:02.237Z,75.31
2023-04-02T22:17:03.905Z,75.31
2023-04-02T22:22:05.519Z,75.31
2023-04-02T22:27:06.912Z,75.31
2023-04-02T22:32:08.222Z,76.13
2023-04-02T22:37:09.583Z,76.13
2023-04-02T22:42:10.927Z,76.13
2023-04-02T22:47:12.356Z,76.13
2023-04-02T22:57:15.030Z,76.13
2023-04-02T23:02:16.434Z,57.84
2023-04-02T23:07:19.582Z,76.13
2023-04-02T23:12:21.240Z,76.13
2023-04-02T23:17:22.757Z,76.13
2023-04-02T23:22:24.093Z,76.13
2023-04-02T23:27:25.649Z,76.13
2023-04-02T23:42:29.589Z,100.00
2023-04-02T23:47:31.072Z,100.00
2023-04-02T23:52:32.432Z,57.84
2023-04-02T23:57:33.879Z,100.00
